Time;durP1;ratioP1;P1;durP2;ratioP2;P2;SDS_P1;SDS_P2;PMS_P1;PMS_P2;Temp;Humidity;BMP_temperature;BMP_pressure;BME280_temperature;BME280_humidity;BME280_pressure;Samples;Min_cycle;Max_cycle;Signal;HPM_P1;HPM_P2
2023/06/08 00:03:47;;;;;;;21.70;14.70;;;;;;;15.90;74.37;98667.70;435737;1253;97870;-42
2023/06/08 00:13:54;;;;;;;17.70;14.30;;;;;;;15.84;74.66;98677.53;435602;1253;108496;-42
2023/06/08 00:24:02;;;;;;;22.50;15.30;;;;;;;15.92;75.03;98687.01;435495;1253;96991;-43
2023/06/08 00:34:10;;;;;;;20.20;16.50;;;;;;;15.81;75.02;98689.16;435615;1253;111004;-41
2023/06/08 00:44:17;;;;;;;20.40;14.30;;;;;;;15.66;74.80;98687.02;435343;1253;108520;-43
2023/06/08 01:14:46;;;;;;;25.80;16.30;;;;;;;15.03;74.97;98679.81;437329;1247;97887;-42
2023/06/08 01:35:03;;;;;;;19.10;13.10;;;;;;;14.77;75.09;98661.91;437075;1251;108047;-42
2023/06/08 01:45:17;;;;;;;19.90;14.90;;;;;;;14.63;75.20;98658.77;437423;1248;96619;-43
2023/06/08 01:55:27;;;;;;;21.10;16.40;;;;;;;14.17;74.92;98656.54;437116;1248;110832;-44
2023/06/08 02:05:35;;;;;;;24.90;18.20;;;;;;;13.97;75.29;98656.32;436996;1251;107281;-44
2023/06/08 02:15:43;;;;;;;29.80;17.70;;;;;;;13.97;75.53;98657.05;437018;1251;97854;-43
2023/06/08 02:25:52;;;;;;;26.20;18.40;;;;;;;13.88;75.59;98655.73;436871;1251;108466;-43
2023/06/08 02:35:59;;;;;;;26.50;15.80;;;;;;;13.92;75.85;98652.80;436938;1247;97428;-43
2023/06/08 02:46:06;;;;;;;26.30;19.80;;;;;;;14.00;76.01;98648.63;436721;1248;110429;-43
2023/06/08 02:56:14;;;;;;;29.30;18.10;;;;;;;13.94;76.04;98651.95;436831;1248;110437;-43
2023/06/08 03:06:22;;;;;;;26.80;19.00;;;;;;;13.91;75.91;98650.77;436640;1251;97241;-42
2023/06/08 03:16:31;;;;;;;25.10;17.40;;;;;;;14.67;75.76;98657.98;436556;1248;110766;-43
2023/06/08 03:26:39;;;;;;;25.60;16.30;;;;;;;16.64;74.48;98663.09;436672;1248;107018;-44
2023/06/08 03:36:46;;;;;;;23.80;15.10;;;;;;;18.21;72.62;98668.62;436117;1247;523578;-42
2023/06/08 03:46:54;;;;;;;19.00;14.00;;;;;;;19.65;70.76;98680.33;436716;1251;107857;-43
2023/06/08 03:57:01;;;;;;;18.70;13.50;;;;;;;20.76;68.99;98683.12;436857;1247;97874;-42
2023/06/08 04:07:08;;;;;;;14.80;12.90;;;;;;;21.80;67.53;98684.59;436581;1247;110760;-43
2023/06/08 04:17:16;;;;;;;14.60;13.10;;;;;;;22.55;65.96;98680.81;437087;1248;108220;-44
2023/06/08 04:27:24;;;;;;;14.10;12.60;;;;;;;23.56;65.23;98678.20;437080;1251;97861;-44
2023/06/08 04:37:32;;;;;;;12.80;11.00;;;;;;;24.56;64.28;98679.55;437259;1251;109955;-42
2023/06/08 04:47:40;;;;;;;13.60;12.20;;;;;;;25.42;63.07;98683.73;437089;1251;107618;-42
2023/06/08 04:57:47;;;;;;;13.10;11.30;;;;;;;25.31;61.50;98687.86;437074;1247;97924;-42
2023/06/08 05:07:54;;;;;;;11.00;9.40;;;;;;;25.80;60.99;98690.90;437018;1248;109636;-42
2023/06/08 05:18:03;;;;;;;12.50;7.30;;;;;;;25.53;58.25;98696.19;436864;1247;109266;-42
2023/06/08 05:38:19;;;;;;;11.40;6.80;;;;;;;23.21;56.39;98695.17;437020;1247;110689;-42
2023/06/08 05:48:27;;;;;;;7.40;6.70;;;;;;;22.83;55.40;98696.98;437169;1247;107206;-42
2023/06/08 05:58:34;;;;;;;10.00;6.50;;;;;;;22.44;55.97;98697.41;437020;1251;97488;-43
2023/06/08 06:08:56;;;;;;;7.90;6.00;;;;;;;22.71;55.37;98695.36;437008;1247;110432;-42
2023/06/08 06:19:02;;;;;;;;;;;;;;;22.51;54.16;98695.13;437017;1247;108472;-42
2023/06/08 06:29:08;;;;;;;6.90;6.20;;;;;;;22.14;53.97;98693.51;437182;1251;97741;-42
2023/06/08 06:39:16;;;;;;;9.20;6.70;;;;;;;21.80;54.57;98695.10;437167;1247;111003;-41
2023/06/08 06:49:23;;;;;;;8.40;5.80;;;;;;;22.25;54.96;98688.56;436934;1248;108340;-42
2023/06/08 06:59:30;;;;;;;7.00;5.00;;;;;;;22.79;54.30;98688.12;436948;1247;97145;-43
2023/06/08 07:09:36;;;;;;;;;;;;;;;23.07;53.70;98686.55;436987;1248;110714;-42
2023/06/08 07:29:52;;;;;;;5.70;5.10;;;;;;;22.83;51.87;98682.89;436897;1247;97164;-43
2023/06/08 07:39:59;;;;;;;5.70;5.20;;;;;;;22.73;51.40;98677.14;436980;1251;111614;-42
2023/06/08 07:50:06;;;;;;;6.60;5.40;;;;;;;22.96;52.07;98681.61;436936;1248;108481;-42
2023/06/08 08:00:13;;;;;;;;;;;;;;;23.11;51.39;98680.29;436981;1248;97909;-42
2023/06/08 08:10:19;;;;;;;8.40;5.10;;;;;;;23.09;51.46;98669.87;437148;1247;108661;-42
2023/06/08 08:20:29;;;;;;;5.70;3.80;;;;;;;23.51;51.79;98669.75;437004;1251;107727;-42
2023/06/08 08:40:41;;;;;;;6.20;3.30;;;;;;;23.69;48.99;98674.10;437038;1247;110791;-43
2023/06/08 08:50:54;;;;;;;3.40;3.10;;;;;;;23.73;48.39;98676.59;436984;1248;108503;-43
2023/06/08 09:11:09;;;;;;;5.00;3.30;;;;;;;23.38;46.89;98685.66;437298;1253;111074;-49
2023/06/08 09:21:21;;;;;;;3.90;3.50;;;;;;;23.49;46.62;98679.59;437350;1247;108112;-42
2023/06/08 09:41:37;;;;;;;4.90;4.10;;;;;;;23.65;46.53;98665.64;437352;1251;107594;-45
2023/06/08 09:51:46;;;;;;;9.20;3.60;;;;;;;23.46;46.84;98656.46;437404;1253;97887;-43
2023/06/08 10:01:54;;;;;;;4.00;3.70;;;;;;;23.47;47.27;98651.45;437250;1253;111051;-44
2023/06/08 10:12:02;;;;;;;9.50;3.80;;;;;;;23.64;46.90;98654.72;437442;1247;107236;-44
2023/06/08 10:22:10;;;;;;;4.10;3.60;;;;;;;23.94;46.38;98649.08;437278;1253;97865;-43
2023/06/08 10:32:17;;;;;;;4.00;3.50;;;;;;;23.67;45.97;98643.29;437273;1251;111004;-43
2023/06/08 10:42:23;;;;;;;8.60;3.10;;;;;;;23.37;45.84;98633.45;437234;1261;107911;-43
2023/06/08 11:02:48;;;;;;;3.50;3.20;;;;;;;23.99;44.31;98622.00;437242;1248;110537;-45
2023/06/08 11:12:55;;;;;;;3.20;2.90;;;;;;;24.70;43.52;98603.52;437383;1253;108080;-42
2023/06/08 11:23:06;;;;;;;3.30;2.90;;;;;;;25.03;41.85;98598.59;437259;1247;97967;-44
2023/06/08 11:43:22;;;;;;;3.70;2.80;;;;;;;25.19;40.76;98578.50;437369;1247;107893;-46
2023/06/08 11:53:30;;;;;;;3.10;2.80;;;;;;;25.27;40.01;98566.39;437276;1247;97870;-43
2023/06/08 12:13:49;;;;;;;4.70;3.00;;;;;;;25.55;38.96;98538.80;437350;1248;108068;-42
2023/06/08 12:23:57;;;;;;;4.20;3.60;;;;;;;25.56;39.33;98523.23;437097;1253;97313;-43
2023/06/08 12:34:03;;;;;;;8.30;3.50;;;;;;;25.45;39.10;98511.91;437371;1251;109137;-42
2023/06/08 12:44:11;;;;;;;7.50;3.40;;;;;;;25.36;37.83;98508.66;437366;1253;106973;-43
2023/06/08 12:54:19;;;;;;;3.90;3.50;;;;;;;25.29;37.05;98505.91;437497;1253;98520;-44
2023/06/08 13:04:27;;;;;;;7.50;3.60;;;;;;;25.18;37.99;98506.81;437528;1254;97868;-44
2023/06/08 13:14:37;;;;;;;5.40;3.60;;;;;;;25.21;38.08;98507.14;437532;1253;109706;-44
2023/06/08 13:24:44;;;;;;;3.90;3.50;;;;;;;25.06;38.63;98504.44;437385;1254;108072;-43
2023/06/08 13:34:51;;;;;;;4.50;3.80;;;;;;;25.08;39.26;98506.55;437487;1248;96626;-42
2023/06/08 13:44:59;;;;;;;7.20;4.70;;;;;;;24.96;39.51;98499.23;437292;1248;110542;-42
2023/06/08 13:55:06;;;;;;;5.20;4.10;;;;;;;24.63;40.86;98510.55;436354;1248;108295;-43
2023/06/08 14:05:17;;;;;;;5.20;4.70;;;;;;;24.43;41.26;98520.36;436466;1248;97930;-44
2023/06/08 14:15:24;;;;;;;5.80;4.60;;;;;;;24.36;41.43;98506.73;436492;1248;107383;-42
2023/06/08 14:35:40;;;;;;;7.80;5.60;;;;;;;24.26;43.50;98510.25;436336;1252;110226;-42
2023/06/08 14:45:48;;;;;;;6.10;5.50;;;;;;;24.00;44.26;98514.91;436300;1252;108185;-43
2023/06/08 14:55:56;;;;;;;6.00;5.50;;;;;;;24.03;44.36;98510.50;436427;1253;96891;-43
2023/06/08 15:06:04;;;;;;;7.60;5.60;;;;;;;23.94;44.57;98505.25;436439;1254;111093;-43
2023/06/08 15:16:11;;;;;;;5.20;4.80;;;;;;;23.83;45.23;98503.68;436438;1253;108169;-44
2023/06/08 15:26:18;;;;;;;4.70;4.30;;;;;;;23.74;46.16;98496.59;436446;1254;97963;-43
2023/06/08 15:36:26;;;;;;;4.50;4.10;;;;;;;23.63;45.64;98491.70;436003;1254;488912;-43
2023/06/08 15:56:40;;;;;;;5.00;4.50;;;;;;;22.94;46.26;98489.17;436403;1248;97925;-43
2023/06/08 16:06:48;;;;;;;4.80;4.40;;;;;;;22.98;46.80;98487.29;436510;1254;109457;-43
2023/06/08 16:16:54;;;;;;;;;;;;;;;23.18;46.80;98487.04;436341;1258;110093;-42
2023/06/08 16:37:10;;;;;;;8.70;5.30;;;;;;;22.91;47.10;98488.51;436342;1247;110243;-42
2023/06/08 16:47:18;;;;;;;7.60;5.40;;;;;;;22.92;47.57;98487.00;436448;1247;108124;-43
2023/06/08 16:57:27;;;;;;;5.50;4.90;;;;;;;22.95;47.78;98478.44;436366;1253;97870;-43
2023/06/08 17:07:34;;;;;;;6.20;5.60;;;;;;;22.98;48.10;98482.72;436362;1261;110940;-42
2023/06/08 17:17:40;;;;;;;;;;;;;;;22.89;48.24;98480.20;436387;1253;108641;-42
2023/06/08 17:27:48;;;;;;;7.20;5.50;;;;;;;22.62;48.56;98476.69;436544;1248;97870;-42
2023/06/08 17:37:55;;;;;;;6.30;5.70;;;;;;;22.29;49.16;98476.24;436435;1251;110772;-43
2023/06/08 17:48:02;;;;;;;7.70;6.90;;;;;;;21.99;49.72;98471.71;436425;1247;108025;-42
2023/06/08 17:58:08;;;;;;;8.20;6.80;;;;;;;21.78;50.31;98470.57;436564;1248;97893;-42
2023/06/08 18:08:16;;;;;;;10.60;8.30;;;;;;;21.64;50.82;98469.39;436453;1252;109769;-42
2023/06/08 18:18:21;;;;;;;;;;;;;;;21.47;51.29;98471.08;436442;1254;107653;-44
2023/06/08 18:28:29;;;;;;;11.40;6.60;;;;;;;21.30;51.45;98470.44;436313;1253;97960;-42
2023/06/08 18:38:37;;;;;;;10.20;7.30;;;;;;;21.15;51.67;98466.23;436319;1253;110887;-42
2023/06/08 18:48:43;;;;;;;9.20;7.40;;;;;;;20.93;52.18;98468.48;436379;1253;107032;-42
2023/06/08 18:58:51;;;;;;;9.10;7.90;;;;;;;20.68;52.80;98471.02;436373;1252;96907;-41
2023/06/08 19:08:57;;;;;;;10.80;9.30;;;;;;;20.38;53.23;98479.54;436487;1254;110821;-43
2023/06/08 19:29:11;;;;;;;9.70;8.80;;;;;;;19.88;54.29;98491.67;436313;1247;97730;-42
2023/06/08 19:39:20;;;;;;;9.50;8.60;;;;;;;19.70;54.92;98490.89;436480;1248;111526;-44
2023/06/08 19:49:27;;;;;;;9.60;6.90;;;;;;;19.57;55.39;98492.73;436229;1262;107033;-43
2023/06/08 19:59:35;;;;;;;;;;;;;;;19.50;55.86;98494.21;436515;1248;97864;-43
2023/06/08 20:19:52;;;;;;;14.00;8.90;;;;;;;19.26;56.62;98491.46;436277;1248;107784;-43
2023/06/08 20:30:00;;;;;;;10.40;9.40;;;;;;;19.13;57.15;98491.99;436510;1252;97864;-43
2023/06/08 20:40:10;;;;;;;9.40;7.50;;;;;;;19.14;57.48;98491.84;436384;1247;109346;-41
2023/06/08 20:50:17;;;;;;;12.10;8.80;;;;;;;19.21;57.80;98494.27;436463;1253;107863;-41
2023/06/08 21:00:25;;;;;;;12.40;9.60;;;;;;;19.27;58.14;98487.42;436405;1254;97969;-41
2023/06/08 21:10:32;;;;;;;12.50;9.70;;;;;;;19.30;58.41;98489.58;436336;1252;109834;-41
2023/06/08 21:20:40;;;;;;;10.50;9.40;;;;;;;19.18;58.59;98487.54;436393;1251;108453;-40
2023/06/08 21:30:48;;;;;;;11.90;10.00;;;;;;;19.02;58.95;98493.35;436503;1247;97466;-42
2023/06/08 21:40:56;;;;;;;10.80;8.50;;;;;;;18.87;59.25;98491.84;436382;1248;108835;-41
2023/06/08 21:51:03;;;;;;;10.40;9.10;;;;;;;18.77;59.63;98485.73;436392;1248;108534;-41
2023/06/08 22:01:11;;;;;;;12.00;10.10;;;;;;;18.69;60.00;98478.80;436320;1254;96625;-41
2023/06/08 22:21:27;;;;;;;14.00;10.40;;;;;;;18.05;60.58;98471.40;436571;1247;107828;-41
2023/06/08 22:31:36;;;;;;;11.90;10.70;;;;;;;17.57;61.39;98465.36;436509;1253;97893;-42
2023/06/08 22:41:43;;;;;;;13.50;11.40;;;;;;;17.29;62.03;98465.92;436343;1253;107656;-41
2023/06/08 22:51:51;;;;;;;15.00;12.00;;;;;;;17.03;62.58;98461.63;436406;1247;97164;-41
2023/06/08 23:01:57;;;;;;;16.00;13.50;;;;;;;16.80;63.38;98462.28;436449;1247;109731;-41
2023/06/08 23:12:03;;;;;;;16.00;13.40;;;;;;;16.63;63.74;98464.58;436463;1252;108175;-41
2023/06/08 23:22:12;;;;;;;20.00;13.30;;;;;;;16.35;64.24;98463.38;436542;1252;97148;-42
2023/06/08 23:32:20;;;;;;;17.60;13.40;;;;;;;16.35;64.69;98458.78;436494;1252;110005;-42
2023/06/08 23:42:27;;;;;;;18.20;14.40;;;;;;;16.25;65.51;98455.80;436566;1253;108008;-42
2023/06/08 23:52:34;;;;;;;21.20;15.90;;;;;;;16.18;65.85;98457.05;436502;1253;96677;-42
